Time;durP1;ratioP1;P1;durP2;ratioP2;P2;SDS_P1;SDS_P2;PMS_P1;PMS_P2;Temp;Humidity;BMP_temperature;BMP_pressure;BME280_temperature;BME280_humidity;BME280_pressure;Samples;Min_cycle;Max_cycle;Signal;HPM_P1;HPM_P2
2022/07/26 00:00:26;;;;;;;0.40;0.40;;;20.10;99.90;;;;;;5051103;28;20437;-59
2022/07/26 00:02:53;;;;;;;0.60;0.60;;;20.00;99.90;;;;;;5043395;28;20982;-59
2022/07/26 00:05:20;;;;;;;0.32;0.32;;;19.90;99.90;;;;;;5047500;28;20436;-59
2022/07/26 00:07:47;;;;;;;0.80;0.60;;;19.90;99.90;;;;;;5057885;28;20431;-59
2022/07/26 00:10:14;;;;;;;0.43;0.43;;;19.80;99.90;;;;;;5050657;28;20982;-59
2022/07/26 00:12:41;;;;;;;0.47;0.47;;;19.70;99.90;;;;;;5041807;28;20439;-59
2022/07/26 00:15:13;;;;;;;1.33;0.40;;;19.60;99.90;;;;;;5060438;28;20918;-59
2022/07/26 00:17:39;;;;;;;0.40;0.40;;;19.60;99.90;;;;;;5043500;28;20427;-59
2022/07/26 00:20:07;;;;;;;0.40;0.40;;;19.60;99.90;;;;;;5057355;28;20428;-59
2022/07/26 00:22:34;;;;;;;0.40;0.40;;;19.50;99.90;;;;;;5051206;28;20485;-59
2022/07/26 00:25:02;;;;;;;0.60;0.40;;;19.50;99.90;;;;;;5031710;28;20426;-59
2022/07/26 00:27:29;;;;;;;0.50;0.50;;;19.50;99.90;;;;;;5042226;28;20453;-59
2022/07/26 00:29:56;;;;;;;0.40;0.40;;;19.40;99.90;;;;;;5059028;28;20920;-58
2022/07/26 00:32:25;;;;;;;0.50;0.50;;;19.30;99.90;;;;;;5046111;28;21118;-58
2022/07/26 00:34:52;;;;;;;0.40;0.40;;;19.30;99.90;;;;;;5034756;28;20442;-58
2022/07/26 00:37:19;;;;;;;0.40;0.40;;;19.20;99.90;;;;;;5052410;28;21201;-58
2022/07/26 00:39:47;;;;;;;0.40;0.40;;;19.20;99.90;;;;;;5055192;28;20441;-58
2022/07/26 00:42:14;;;;;;;1.10;0.50;;;19.10;99.90;;;;;;5056251;28;20605;-58
2022/07/26 00:44:43;;;;;;;0.35;0.35;;;19.20;99.90;;;;;;5057488;28;20434;-58
2022/07/26 00:47:14;;;;;;;0.40;0.40;;;19.20;99.90;;;;;;5050171;28;20482;-58
2022/07/26 00:49:42;;;;;;;1.00;0.55;;;19.40;99.90;;;;;;5050513;28;20459;-58
2022/07/26 00:52:10;;;;;;;0.40;0.40;;;19.50;99.90;;;;;;5040539;28;20429;-58
2022/07/26 00:54:39;;;;;;;0.40;0.40;;;19.60;99.90;;;;;;5043553;28;20823;-58
2022/07/26 00:57:06;;;;;;;0.40;0.40;;;19.70;99.90;;;;;;5051631;28;20500;-58
2022/07/26 00:59:33;;;;;;;0.40;0.40;;;19.80;99.90;;;;;;5044220;28;20428;-58
2022/07/26 01:02:04;;;;;;;0.80;0.50;;;19.80;99.90;;;;;;5055475;28;20952;-58
2022/07/26 01:04:31;;;;;;;0.40;0.40;;;19.90;99.90;;;;;;5057459;28;20433;-58
2022/07/26 01:06:58;;;;;;;0.50;0.50;;;19.90;99.90;;;;;;5055134;28;20425;-58
2022/07/26 01:09:26;;;;;;;0.50;0.40;;;19.90;99.90;;;;;;5058818;28;20881;-58
2022/07/26 01:11:52;;;;;;;0.40;0.40;;;19.90;99.90;;;;;;5054520;28;20454;-58
2022/07/26 01:14:20;;;;;;;0.40;0.40;;;19.90;99.90;;;;;;5060916;28;20431;-58
2022/07/26 01:16:47;;;;;;;0.43;0.43;;;19.90;99.90;;;;;;5060343;28;20434;-58
2022/07/26 01:19:18;;;;;;;0.40;0.40;;;19.80;99.90;;;;;;5057988;28;20434;-59
2022/07/26 01:21:44;;;;;;;0.45;0.45;;;19.60;99.90;;;;;;5055257;28;20529;-59
2022/07/26 01:24:14;;;;;;;0.40;0.40;;;19.50;99.90;;;;;;5055214;28;20537;-58
2022/07/26 01:26:41;;;;;;;1.20;0.40;;;19.30;99.90;;;;;;5055407;28;20860;-58
2022/07/26 01:29:08;;;;;;;0.40;0.40;;;19.10;99.90;;;;;;5054363;28;20427;-59
2022/07/26 01:31:35;;;;;;;0.50;0.50;;;18.90;99.90;;;;;;5047319;28;20514;-58
2022/07/26 01:34:02;;;;;;;0.40;0.40;;;18.70;99.90;;;;;;5057097;28;20522;-58
2022/07/26 01:36:32;;;;;;;0.40;0.40;;;18.50;99.90;;;;;;5056518;28;20423;-58
2022/07/26 01:38:59;;;;;;;0.38;0.38;;;18.40;99.90;;;;;;5056577;28;20460;-58
2022/07/26 01:41:25;;;;;;;0.30;0.30;;;18.30;99.90;;;;;;5046498;28;20526;-58
2022/07/26 01:44:05;;;;;;;0.50;0.47;;;18.20;99.90;;;;;;5048678;28;20426;-58
2022/07/26 01:46:34;;;;;;;0.80;0.40;;;18.30;99.90;;;;;;5057431;28;20428;-58
2022/07/26 01:49:02;;;;;;;0.50;0.50;;;18.30;99.90;;;;;;5060558;28;20424;-58
2022/07/26 01:51:29;;;;;;;0.30;0.30;;;18.30;99.90;;;;;;5052548;28;21027;-59
2022/07/26 01:53:56;;;;;;;1.00;0.50;;;18.30;99.90;;;;;;5054263;28;20435;-58
2022/07/26 01:56:25;;;;;;;0.50;0.50;;;18.30;99.90;;;;;;5048810;28;20436;-59
2022/07/26 01:58:52;;;;;;;0.52;0.52;;;18.40;99.90;;;;;;5060603;28;20425;-58
2022/07/26 02:01:19;;;;;;;0.40;0.40;;;18.40;99.90;;;;;;5051489;28;20424;-58
2022/07/26 02:04:06;;;;;;;0.73;0.47;;;18.40;99.90;;;;;;5041872;28;20841;-58
2022/07/26 02:06:34;;;;;;;0.30;0.30;;;18.50;99.90;;;;;;5052539;28;20431;-59
2022/07/26 02:09:03;;;;;;;1.67;0.45;;;18.50;99.90;;;;;;5055046;28;20435;-58
2022/07/26 02:11:33;;;;;;;0.50;0.50;;;18.50;99.90;;;;;;5048719;28;20463;-58
2022/07/26 02:14:01;;;;;;;0.40;0.40;;;18.50;99.90;;;;;;5060407;28;20512;-58
2022/07/26 02:16:28;;;;;;;0.35;0.35;;;18.50;99.90;;;;;;5061126;28;20429;-59
2022/07/26 02:18:54;;;;;;;0.40;0.40;;;18.50;99.90;;;;;;5051129;28;20435;-59
2022/07/26 02:21:21;;;;;;;0.40;0.40;;;18.50;99.90;;;;;;5059048;28;20469;-58
2022/07/26 02:23:48;;;;;;;0.30;0.30;;;18.50;99.90;;;;;;5049365;28;20430;-58
2022/07/26 02:26:15;;;;;;;0.52;0.52;;;18.40;99.90;;;;;;5045667;28;20436;-59
2022/07/26 02:28:41;;;;;;;0.55;0.52;;;18.40;99.90;;;;;;5049117;28;20427;-58
2022/07/26 02:31:08;;;;;;;0.60;0.47;;;18.40;99.90;;;;;;5058218;28;20433;-58
2022/07/26 02:33:37;;;;;;;1.65;0.60;;;18.40;99.90;;;;;;5054348;28;20921;-58
2022/07/26 02:36:04;;;;;;;0.38;0.38;;;18.30;99.90;;;;;;5050926;28;20468;-59
2022/07/26 02:38:31;;;;;;;0.50;0.50;;;18.30;99.90;;;;;;5046256;28;20612;-58
2022/07/26 02:40:57;;;;;;;0.80;0.57;;;18.20;99.90;;;;;;5049063;28;20477;-58
2022/07/26 02:43:25;;;;;;;0.50;0.50;;;18.00;99.90;;;;;;5056840;28;20424;-58
2022/07/26 02:45:59;;;;;;;0.40;0.40;;;18.00;99.90;;;;;;5055319;28;20434;-58
2022/07/26 02:48:29;;;;;;;0.60;0.60;;;17.80;99.90;;;;;;5066122;28;20432;-58
2022/07/26 02:50:56;;;;;;;0.50;0.50;;;17.70;99.90;;;;;;5054485;28;20520;-58
2022/07/26 02:53:22;;;;;;;0.40;0.40;;;17.60;99.90;;;;;;5053589;28;20523;-58
2022/07/26 02:55:49;;;;;;;0.60;0.60;;;17.50;99.90;;;;;;5058056;28;21183;-58
2022/07/26 02:58:16;;;;;;;0.47;0.47;;;17.40;99.90;;;;;;5055572;28;20544;-58
2022/07/26 03:00:43;;;;;;;0.50;0.50;;;17.30;99.90;;;;;;5053325;28;20484;-59
2022/07/26 03:03:12;;;;;;;0.50;0.50;;;17.30;99.90;;;;;;5061242;28;21186;-58
2022/07/26 03:05:39;;;;;;;0.43;0.43;;;17.30;99.90;;;;;;5052387;28;20429;-58
2022/07/26 03:08:08;;;;;;;0.52;0.52;;;17.30;99.90;;;;;;5039145;28;20450;-58
2022/07/26 03:10:38;;;;;;;0.30;0.30;;;17.20;99.90;;;;;;5053038;28;20427;-58
2022/07/26 03:13:05;;;;;;;0.50;0.50;;;17.20;99.90;;;;;;5054940;28;20934;-58
2022/07/26 03:15:31;;;;;;;0.30;0.30;;;17.10;99.90;;;;;;5032320;28;20427;-58
2022/07/26 03:17:58;;;;;;;0.50;0.50;;;17.00;99.90;;;;;;5042515;28;20807;-58
2022/07/26 03:20:25;;;;;;;0.43;0.43;;;17.00;99.90;;;;;;5040460;28;20483;-58
2022/07/26 03:22:52;;;;;;;0.40;0.40;;;16.80;99.90;;;;;;5048602;28;20421;-58
2022/07/26 03:25:19;;;;;;;0.43;0.43;;;16.70;99.90;;;;;;5055195;28;21018;-58
2022/07/26 03:27:49;;;;;;;0.43;0.43;;;16.60;99.90;;;;;;5045363;28;20458;-58
2022/07/26 03:30:15;;;;;;;0.45;0.45;;;16.50;99.90;;;;;;5051186;28;20439;-58
2022/07/26 03:32:50;;;;;;;0.50;0.50;;;16.40;99.90;;;;;;5038459;28;20434;-58
2022/07/26 03:35:17;;;;;;;0.50;0.50;;;16.30;99.90;;;;;;5055743;28;20441;-58
2022/07/26 03:37:44;;;;;;;0.50;0.50;;;16.30;99.90;;;;;;5049486;28;20542;-58
2022/07/26 03:40:21;;;;;;;0.60;0.60;;;16.20;99.90;;;;;;5061517;28;20432;-58
2022/07/26 03:42:48;;;;;;;0.73;0.73;;;16.20;99.90;;;;;;5062324;28;20433;-58
2022/07/26 03:45:15;;;;;;;0.50;0.50;;;16.20;99.90;;;;;;5061145;28;20439;-58
2022/07/26 03:47:42;;;;;;;0.43;0.43;;;16.20;99.90;;;;;;5045725;28;20431;-58
2022/07/26 03:50:10;;;;;;;0.50;0.50;;;16.20;99.90;;;;;;5063994;28;20433;-58
2022/07/26 03:52:36;;;;;;;0.55;0.50;;;16.10;99.90;;;;;;5053885;28;20433;-58
2022/07/26 03:57:51;;;;;;;0.40;0.40;;;16.00;99.90;;;;;;5057989;28;21108;-58
2022/07/26 04:00:20;;;;;;;0.30;0.30;;;16.00;99.90;;;;;;5057850;28;20460;-58
2022/07/26 04:02:47;;;;;;;0.30;0.30;;;16.00;99.90;;;;;;5061574;28;20441;-58
2022/07/26 04:05:13;;;;;;;0.53;0.53;;;16.00;99.90;;;;;;5046657;28;20428;-58
2022/07/26 04:07:45;;;;;;;0.50;0.50;;;15.90;99.90;;;;;;5045650;28;20430;-58
2022/07/26 04:10:19;;;;;;;0.47;0.47;;;15.90;99.90;;;;;;5039519;28;20482;-58
2022/07/26 04:12:46;;;;;;;0.40;0.40;;;15.90;99.90;;;;;;5051048;28;20438;-58
2022/07/26 04:15:15;;;;;;;0.50;0.50;;;15.80;99.90;;;;;;5042762;28;20470;-58
2022/07/26 04:17:47;;;;;;;0.38;0.38;;;15.90;99.90;;;;;;5065509;28;20423;-58
2022/07/26 04:20:14;;;;;;;0.88;0.50;;;15.90;99.90;;;;;;5052178;28;20919;-59
2022/07/26 04:22:41;;;;;;;0.40;0.40;;;16.00;99.90;;;;;;5058285;28;20423;-58
2022/07/26 04:25:08;;;;;;;0.40;0.40;;;16.00;99.90;;;;;;5054289;28;20775;-58
2022/07/26 04:27:37;;;;;;;1.52;0.70;;;16.10;99.90;;;;;;5047082;28;20507;-58
2022/07/26 04:30:05;;;;;;;0.53;0.53;;;16.20;99.90;;;;;;5052499;28;20473;-58
2022/07/26 04:32:40;;;;;;;0.50;0.40;;;16.40;99.90;;;;;;5049802;28;20428;-58
2022/07/26 04:35:07;;;;;;;0.50;0.50;;;16.50;99.90;;;;;;5038901;28;20426;-58
2022/07/26 04:37:44;;;;;;;0.60;0.60;;;16.60;99.90;;;;;;5042787;28;20425;-59
2022/07/26 04:40:19;;;;;;;0.40;0.40;;;16.70;99.90;;;;;;5050712;28;20982;-58
2022/07/26 04:42:48;;;;;;;0.30;0.30;;;16.80;99.90;;;;;;5054284;28;20961;-58
2022/07/26 04:45:15;;;;;;;0.30;0.30;;;16.90;99.90;;;;;;5045277;28;20431;-58
2022/07/26 04:47:51;;;;;;;0.30;0.30;;;16.90;99.90;;;;;;5053388;28;20457;-58
2022/07/26 04:50:19;;;;;;;0.30;0.30;;;17.20;99.90;;;;;;5031142;28;20431;-59
2022/07/26 04:52:47;;;;;;;0.30;0.30;;;17.80;99.90;;;;;;5045976;28;20430;-58
2022/07/26 04:55:15;;;;;;;0.40;0.40;;;18.50;99.90;;;;;;5038000;28;20919;-59
2022/07/26 04:57:43;;;;;;;0.30;0.30;;;19.20;99.90;;;;;;5049566;28;20427;-59
2022/07/26 05:00:15;;;;;;;0.40;0.30;;;19.80;99.90;;;;;;5052735;28;20429;-59
2022/07/26 05:02:48;;;;;;;0.30;0.30;;;20.20;99.90;;;;;;5032061;28;20936;-59
2022/07/26 05:05:15;;;;;;;0.30;0.30;;;20.80;99.90;;;;;;5046984;28;20503;-59
2022/07/26 05:07:53;;;;;;;0.50;0.50;;;21.40;99.90;;;;;;5046650;28;20952;-59
2022/07/26 05:10:30;;;;;;;0.30;0.30;;;22.00;99.90;;;;;;5043761;28;20429;-59
2022/07/26 05:12:57;;;;;;;0.20;0.20;;;22.70;99.90;;;;;;5048013;28;20463;-59
2022/07/26 05:15:24;;;;;;;0.30;0.30;;;23.10;99.90;;;;;;5048930;28;20849;-59
2022/07/26 05:18:05;;;;;;;0.20;0.20;;;23.50;99.90;;;;;;5057800;28;20842;-57
2022/07/26 05:20:34;;;;;;;0.28;0.28;;;23.50;99.90;;;;;;5046312;28;20868;-57
2022/07/26 05:23:00;;;;;;;0.30;0.30;;;23.70;99.90;;;;;;5035994;28;20506;-57
2022/07/26 05:25:28;;;;;;;0.20;0.20;;;23.70;99.90;;;;;;5045194;28;21027;-57
2022/07/26 05:27:55;;;;;;;0.20;0.20;;;23.80;99.90;;;;;;5048849;28;20434;-57
2022/07/26 05:30:21;;;;;;;0.30;0.30;;;23.90;99.90;;;;;;5051115;28;20441;-56
2022/07/26 05:32:48;;;;;;;0.20;0.20;;;23.80;99.90;;;;;;5058531;28;20429;-57
2022/07/26 05:35:15;;;;;;;0.70;0.30;;;24.10;99.90;;;;;;5055186;28;20423;-57
2022/07/26 05:37:44;;;;;;;0.30;0.30;;;24.60;99.90;;;;;;5044632;28;20430;-56
2022/07/26 05:40:14;;;;;;;0.30;0.30;;;24.90;99.90;;;;;;5064461;28;20455;-56
2022/07/26 05:42:41;;;;;;;0.20;0.20;;;25.20;99.90;;;;;;5046639;28;20431;-56
2022/07/26 05:45:09;;;;;;;0.30;0.30;;;25.50;99.90;;;;;;5077523;28;20895;-56
2022/07/26 05:47:36;;;;;;;0.20;0.20;;;25.30;99.90;;;;;;5061394;28;20447;-57
2022/07/26 05:50:04;;;;;;;0.22;0.22;;;25.20;99.90;;;;;;5058666;28;20433;-56
2022/07/26 05:52:31;;;;;;;0.20;0.20;;;25.20;99.90;;;;;;5071617;28;20422;-56
2022/07/26 05:54:58;;;;;;;0.20;0.20;;;25.30;99.90;;;;;;5058601;28;20819;-56
2022/07/26 05:57:25;;;;;;;0.20;0.20;;;25.60;99.90;;;;;;5040922;28;20438;-56
2022/07/26 05:59:52;;;;;;;0.20;0.20;;;25.90;99.90;;;;;;5057145;28;21019;-56
2022/07/26 06:02:19;;;;;;;0.20;0.20;;;26.20;99.90;;;;;;5057772;28;20462;-56
2022/07/26 06:04:46;;;;;;;0.20;0.20;;;26.20;99.90;;;;;;5050553;28;20836;-56
2022/07/26 06:07:14;;;;;;;0.20;0.20;;;26.30;99.90;;;;;;5041275;28;20907;-56
2022/07/26 06:09:44;;;;;;;0.30;0.30;;;26.20;99.90;;;;;;5041975;28;20425;-56
2022/07/26 06:12:10;;;;;;;0.30;0.30;;;26.20;99.80;;;;;;5052733;28;20437;-56
2022/07/26 06:14:37;;;;;;;0.22;0.22;;;26.10;99.50;;;;;;5065686;28;20488;-56
2022/07/26 06:17:04;;;;;;;0.23;0.23;;;26.30;99.60;;;;;;5054391;28;20475;-56
2022/07/26 06:19:31;;;;;;;0.35;0.35;;;26.40;99.30;;;;;;5048950;28;20519;-56
2022/07/26 06:21:58;;;;;;;0.20;0.20;;;26.60;99.00;;;;;;5051683;28;20956;-56
2022/07/26 06:24:25;;;;;;;0.28;0.28;;;26.80;98.80;;;;;;5048948;28;20437;-56
2022/07/26 06:26:54;;;;;;;0.20;0.20;;;26.80;98.60;;;;;;5053039;28;20429;-57
2022/07/26 06:29:34;;;;;;;0.20;0.20;;;27.00;98.60;;;;;;5033960;28;20536;-57
2022/07/26 06:32:00;;;;;;;0.30;0.30;;;26.80;98.20;;;;;;5049579;28;20534;-57
2022/07/26 06:34:27;;;;;;;0.22;0.22;;;26.30;98.60;;;;;;5048137;28;20436;-57
2022/07/26 06:36:54;;;;;;;0.22;0.22;;;26.20;99.10;;;;;;5051119;28;20531;-57
2022/07/26 06:39:21;;;;;;;0.22;0.22;;;26.50;98.60;;;;;;5040876;28;20467;-57
2022/07/26 06:41:48;;;;;;;0.20;0.20;;;27.00;98.60;;;;;;5036002;28;20525;-56
2022/07/26 06:44:14;;;;;;;0.30;0.30;;;27.20;97.90;;;;;;5057851;28;20429;-56
2022/07/26 06:46:43;;;;;;;0.30;0.30;;;27.40;97.90;;;;;;5050430;28;20465;-56
2022/07/26 06:49:11;;;;;;;0.30;0.30;;;27.50;97.60;;;;;;5057143;28;21002;-56
2022/07/26 06:51:38;;;;;;;0.20;0.20;;;27.70;97.30;;;;;;5034457;28;20485;-57
2022/07/26 06:54:05;;;;;;;0.30;0.30;;;28.00;97.40;;;;;;5049662;28;20427;-56
2022/07/26 06:56:32;;;;;;;0.20;0.20;;;28.30;96.60;;;;;;5040395;28;20437;-56
2022/07/26 06:58:59;;;;;;;0.30;0.30;;;28.30;96.40;;;;;;5051371;28;20518;-56
2022/07/26 07:01:26;;;;;;;0.20;0.20;;;28.30;96.20;;;;;;5058067;28;20489;-56
2022/07/26 07:04:12;;;;;;;0.20;0.20;;;28.20;96.30;;;;;;5045853;28;20813;-56
2022/07/26 07:06:39;;;;;;;0.73;0.30;;;28.30;96.50;;;;;;5050415;28;21079;-56
2022/07/26 07:09:07;;;;;;;0.30;0.30;;;28.40;96.10;;;;;;5051618;28;20455;-56
2022/07/26 07:11:35;;;;;;;0.20;0.20;;;28.40;95.70;;;;;;5048511;28;20433;-56
2022/07/26 07:14:02;;;;;;;0.30;0.30;;;28.50;95.80;;;;;;5043507;28;20643;-56
2022/07/26 07:16:29;;;;;;;0.20;0.20;;;28.50;95.70;;;;;;5054333;28;20431;-56
2022/07/26 07:18:56;;;;;;;0.20;0.20;;;28.60;95.60;;;;;;5041925;28;21119;-56
2022/07/26 07:21:23;;;;;;;0.30;0.30;;;28.80;95.60;;;;;;5043556;28;20436;-56
2022/07/26 07:23:49;;;;;;;0.28;0.28;;;29.10;95.20;;;;;;5038972;28;20545;-57
2022/07/26 07:26:18;;;;;;;0.30;0.30;;;29.30;95.20;;;;;;5041607;28;20425;-57
2022/07/26 07:28:48;;;;;;;0.30;0.30;;;29.50;95.10;;;;;;5037268;28;20495;-56
2022/07/26 07:31:15;;;;;;;0.30;0.30;;;29.40;94.70;;;;;;5039739;28;20508;-56
2022/07/26 07:33:42;;;;;;;0.20;0.20;;;29.20;94.70;;;;;;5042563;28;20469;-56
2022/07/26 07:36:21;;;;;;;0.30;0.30;;;28.70;94.50;;;;;;5043711;28;20932;-56
2022/07/26 07:38:48;;;;;;;0.20;0.20;;;28.20;95.40;;;;;;5037689;28;20791;-56
2022/07/26 07:41:15;;;;;;;0.20;0.20;;;28.00;96.30;;;;;;5038933;28;20554;-56
2022/07/26 07:43:42;;;;;;;0.40;0.40;;;27.80;96.10;;;;;;5045976;28;20488;-56
2022/07/26 07:46:09;;;;;;;0.20;0.20;;;28.40;95.50;;;;;;5036711;28;20426;-56
2022/07/26 07:48:39;;;;;;;0.28;0.28;;;28.40;95.50;;;;;;5041874;28;20987;-56
2022/07/26 07:51:12;;;;;;;0.30;0.30;;;27.80;95.90;;;;;;5048903;28;20495;-55
2022/07/26 07:53:39;;;;;;;0.40;0.40;;;27.50;96.00;;;;;;5041695;28;20465;-56
2022/07/26 07:56:06;;;;;;;0.30;0.30;;;27.80;96.20;;;;;;5041557;28;20437;-56
2022/07/26 07:58:33;;;;;;;0.20;0.20;;;27.90;95.70;;;;;;5051489;28;20426;-56
2022/07/26 08:01:00;;;;;;;0.30;0.30;;;28.40;95.60;;;;;;5042959;28;20427;-56
2022/07/26 08:03:27;;;;;;;0.33;0.33;;;28.70;95.10;;;;;;5057052;28;20433;-56
2022/07/26 08:06:07;;;;;;;0.20;0.20;;;28.80;95.80;;;;;;5039915;28;20628;-56
2022/07/26 08:08:34;;;;;;;0.30;0.30;;;28.80;95.30;;;;;;5036131;28;20423;-56
2022/07/26 08:11:02;;;;;;;0.60;0.20;;;28.70;94.90;;;;;;5048369;28;20440;-56
2022/07/26 08:13:34;;;;;;;0.30;0.30;;;28.90;95.00;;;;;;5048144;28;20428;-56
2022/07/26 08:16:03;;;;;;;0.20;0.20;;;29.00;94.50;;;;;;5058351;28;20425;-56
2022/07/26 08:18:31;;;;;;;0.20;0.20;;;29.10;94.60;;;;;;5040268;28;20444;-56
2022/07/26 08:20:59;;;;;;;0.22;0.22;;;29.10;94.50;;;;;;5044129;28;20434;-56
2022/07/26 08:23:25;;;;;;;0.30;0.30;;;29.20;94.30;;;;;;5040874;28;20425;-56
2022/07/26 08:25:52;;;;;;;0.30;0.30;;;28.40;94.30;;;;;;5046881;28;20773;-56
2022/07/26 08:28:27;;;;;;;0.20;0.20;;;27.60;95.70;;;;;;5049568;28;20444;-56
2022/07/26 08:31:15;;;;;;;0.30;0.30;;;27.80;95.40;;;;;;5058513;28;20430;-56
2022/07/26 08:33:42;;;;;;;0.20;0.20;;;28.30;95.70;;;;;;5048787;28;20438;-56
2022/07/26 08:36:13;;;;;;;0.30;0.30;;;28.90;94.90;;;;;;5034987;28;20939;-56
2022/07/26 08:38:40;;;;;;;0.20;0.20;;;29.30;94.30;;;;;;5058257;28;20936;-56
2022/07/26 08:41:07;;;;;;;0.20;0.20;;;29.60;93.80;;;;;;5049686;28;20518;-56
2022/07/26 08:43:34;;;;;;;0.30;0.30;;;29.70;93.30;;;;;;5049864;28;20440;-56
2022/07/26 08:46:18;;;;;;;0.25;0.25;;;29.40;93.00;;;;;;5045493;28;20431;-56
2022/07/26 08:48:52;;;;;;;0.20;0.20;;;28.90;93.10;;;;;;5041741;28;20948;-56
2022/07/26 08:51:22;;;;;;;0.30;0.30;;;29.00;93.10;;;;;;5032813;28;20435;-56
2022/07/26 08:53:52;;;;;;;0.20;0.20;;;28.90;94.00;;;;;;5046691;28;20438;-56
2022/07/26 08:56:19;;;;;;;0.30;0.30;;;29.20;93.30;;;;;;5046828;28;20905;-56
2022/07/26 08:58:46;;;;;;;0.30;0.30;;;29.40;92.50;;;;;;5036710;28;20429;-56
2022/07/26 09:01:13;;;;;;;0.20;0.20;;;29.10;92.20;;;;;;5056385;28;20522;-56
2022/07/26 09:03:42;;;;;;;0.30;0.30;;;28.70;93.40;;;;;;5036694;28;20515;-56
2022/07/26 09:06:29;;;;;;;0.30;0.30;;;29.00;94.60;;;;;;5056929;28;20759;-56
2022/07/26 09:09:10;;;;;;;0.20;0.20;;;29.90;92.60;;;;;;5035124;28;20431;-56
2022/07/26 09:11:39;;;;;;;0.30;0.30;;;30.40;92.10;;;;;;5043425;28;20458;-56
2022/07/26 09:14:05;;;;;;;0.40;0.40;;;29.30;91.70;;;;;;5054001;28;20938;-56
2022/07/26 09:16:33;;;;;;;0.30;0.30;;;28.40;93.00;;;;;;5047800;28;20435;-56
2022/07/26 09:19:18;;;;;;;0.20;0.20;;;28.10;93.60;;;;;;5039356;28;20434;-57
2022/07/26 09:21:45;;;;;;;0.30;0.30;;;28.40;93.70;;;;;;5036634;28;20529;-56
2022/07/26 09:24:12;;;;;;;0.20;0.20;;;28.60;93.40;;;;;;5038858;28;20437;-56
2022/07/26 09:26:55;;;;;;;0.30;0.30;;;28.90;93.10;;;;;;5040341;28;20440;-56
2022/07/26 09:29:22;;;;;;;0.30;0.30;;;29.10;92.80;;;;;;5044028;28;20436;-57
2022/07/26 09:31:48;;;;;;;0.20;0.20;;;29.10;92.90;;;;;;5041761;28;20437;-56
2022/07/26 09:34:25;;;;;;;0.30;0.30;;;29.20;92.80;;;;;;5045359;28;20479;-57
2022/07/26 09:36:53;;;;;;;0.30;0.30;;;29.10;92.60;;;;;;5041979;28;20429;-57
2022/07/26 09:39:20;;;;;;;0.30;0.30;;;29.50;92.00;;;;;;5044737;28;20445;-58
2022/07/26 09:42:07;;;;;;;0.30;0.30;;;29.40;92.20;;;;;;5035683;28;20489;-57
2022/07/26 09:44:54;;;;;;;0.20;0.20;;;29.80;92.30;;;;;;5045369;28;20429;-58
2022/07/26 09:47:22;;;;;;;0.35;0.35;;;30.00;92.30;;;;;;5066136;28;20458;-57
2022/07/26 09:50:07;;;;;;;0.30;0.30;;;29.90;91.60;;;;;;5046363;28;20427;-57
2022/07/26 09:52:38;;;;;;;0.22;0.22;;;29.50;91.80;;;;;;5013576;28;20431;-58
2022/07/26 09:55:07;;;;;;;0.20;0.20;;;29.10;92.50;;;;;;5026994;28;20500;-58
2022/07/26 09:57:34;;;;;;;1.80;0.30;;;29.70;92.80;;;;;;5026504;28;20462;-56
2022/07/26 10:00:05;;;;;;;0.30;0.30;;;30.50;91.70;;;;;;5034080;28;20443;-54
2022/07/26 10:02:33;;;;;;;0.40;0.40;;;30.20;91.50;;;;;;5012010;28;20439;-55
2022/07/26 10:05:00;;;;;;;0.20;0.20;;;29.50;91.70;;;;;;5032969;28;20462;-55
2022/07/26 10:07:27;;;;;;;0.50;0.30;;;28.80;92.10;;;;;;5024807;28;20466;-55
2022/07/26 10:10:07;;;;;;;0.30;0.30;;;28.50;92.60;;;;;;5013433;28;20810;-55
2022/07/26 10:12:34;;;;;;;0.30;0.30;;;28.10;92.90;;;;;;5033196;28;20443;-58
2022/07/26 10:15:02;;;;;;;0.28;0.28;;;28.40;94.10;;;;;;5030897;28;20840;-55
2022/07/26 10:17:41;;;;;;;0.28;0.28;;;29.20;92.10;;;;;;5023167;28;20432;-57
2022/07/26 10:20:29;;;;;;;0.30;0.30;;;29.80;91.70;;;;;;5032487;28;20548;-58
2022/07/26 10:22:57;;;;;;;0.30;0.30;;;30.30;91.50;;;;;;5036773;28;20442;-57
2022/07/26 10:25:24;;;;;;;0.30;0.30;;;30.50;91.70;;;;;;5035917;28;20488;-57
2022/07/26 10:27:53;;;;;;;0.30;0.30;;;31.20;91.10;;;;;;5033087;28;20542;-57
2022/07/26 10:30:21;;;;;;;0.40;0.40;;;31.60;90.50;;;;;;5029311;28;20557;-57
2022/07/26 10:33:00;;;;;;;0.30;0.30;;;32.00;90.00;;;;;;5047373;28;20885;-58
2022/07/26 10:35:35;;;;;;;0.30;0.30;;;32.30;90.20;;;;;;5026316;28;20438;-58
2022/07/26 10:38:04;;;;;;;0.30;0.30;;;32.70;89.90;;;;;;5037468;28;20427;-58
2022/07/26 10:40:31;;;;;;;0.35;0.35;;;33.20;88.10;;;;;;5028824;28;20442;-58
2022/07/26 10:43:12;;;;;;;0.30;0.30;;;32.50;87.60;;;;;;5032848;28;20536;-59
2022/07/26 10:46:14;;;;;;;0.28;0.28;;;31.80;88.10;;;;;;5033595;28;20427;-58
2022/07/26 10:49:03;;;;;;;0.28;0.28;;;30.30;89.70;;;;;;5027350;28;20438;-58
2022/07/26 10:51:38;;;;;;;0.30;0.30;;;30.10;90.10;;;;;;5023843;28;20466;-57
2022/07/26 10:54:12;;;;;;;0.22;0.22;;;30.80;91.80;;;;;;5021482;28;20542;-58
2022/07/26 10:56:39;;;;;;;0.20;0.20;;;30.80;87.90;;;;;;5051518;28;20475;-57
2022/07/26 10:59:06;;;;;;;0.30;0.30;;;30.00;88.70;;;;;;5027314;28;20520;-57
2022/07/26 11:01:41;;;;;;;0.38;0.38;;;30.20;88.70;;;;;;5025981;28;20494;-58
2022/07/26 11:04:35;;;;;;;0.20;0.20;;;30.90;88.80;;;;;;5033640;28;20426;-57
2022/07/26 11:07:02;;;;;;;0.50;0.30;;;31.50;89.10;;;;;;5035786;28;20431;-58
2022/07/26 11:09:35;;;;;;;0.30;0.30;;;31.80;87.90;;;;;;5025997;28;20859;-57
2022/07/26 11:12:15;;;;;;;0.30;0.30;;;32.00;88.10;;;;;;5027200;28;20774;-58
2022/07/26 11:14:43;;;;;;;0.30;0.30;;;32.30;88.10;;;;;;5018311;28;20942;-58
2022/07/26 11:17:24;;;;;;;0.20;0.20;;;32.60;86.90;;;;;;5031464;28;20953;-58
2022/07/26 11:19:51;;;;;;;0.28;0.28;;;32.40;86.60;;;;;;5024794;28;21168;-57
2022/07/26 11:22:20;;;;;;;0.70;0.32;;;31.50;86.20;;;;;;5021853;28;20430;-57
2022/07/26 11:24:47;;;;;;;0.20;0.20;;;30.90;85.90;;;;;;5022115;28;20459;-58
2022/07/26 11:27:14;;;;;;;0.30;0.30;;;30.70;88.40;;;;;;5030211;28;20960;-57
2022/07/26 11:29:40;;;;;;;0.20;0.20;;;31.10;88.50;;;;;;5035368;28;20434;-57
2022/07/26 11:32:17;;;;;;;0.30;0.30;;;31.40;87.20;;;;;;5023042;28;20774;-58
2022/07/26 11:34:45;;;;;;;0.30;0.30;;;31.60;86.90;;;;;;5027645;28;20443;-57
2022/07/26 11:37:12;;;;;;;0.30;0.30;;;31.90;86.50;;;;;;5016503;28;20511;-58
2022/07/26 11:39:39;;;;;;;0.30;0.30;;;32.20;85.00;;;;;;5035241;28;20475;-57
2022/07/26 11:42:09;;;;;;;0.20;0.20;;;32.50;85.80;;;;;;5035149;28;20427;-57
2022/07/26 11:44:36;;;;;;;0.35;0.35;;;32.80;85.20;;;;;;5024355;28;20787;-58
2022/07/26 11:47:28;;;;;;;0.30;0.30;;;33.20;85.20;;;;;;5026862;28;21321;-58
2022/07/26 11:49:54;;;;;;;0.30;0.30;;;32.20;85.20;;;;;;5028687;28;20506;-58
2022/07/26 11:52:41;;;;;;;0.50;0.30;;;31.30;86.90;;;;;;5028476;28;20496;-57
2022/07/26 11:55:08;;;;;;;0.30;0.30;;;30.50;87.10;;;;;;5050392;28;20478;-57
2022/07/26 11:57:35;;;;;;;0.30;0.30;;;29.70;87.80;;;;;;5034138;28;20431;-57
2022/07/26 12:00:03;;;;;;;0.23;0.23;;;29.30;89.50;;;;;;5045911;28;20467;-58
2022/07/26 12:02:30;;;;;;;0.30;0.30;;;29.40;88.90;;;;;;5033918;28;20498;-57
2022/07/26 12:05:19;;;;;;;0.40;0.40;;;29.80;87.80;;;;;;5044599;28;21180;-57
2022/07/26 12:08:03;;;;;;;0.20;0.20;;;30.30;87.80;;;;;;5037178;28;20434;-57
2022/07/26 12:10:30;;;;;;;0.27;0.27;;;30.90;86.80;;;;;;5049899;28;20425;-57
2022/07/26 12:13:07;;;;;;;0.30;0.30;;;30.80;85.10;;;;;;5035403;28;20457;-58
2022/07/26 12:15:49;;;;;;;0.22;0.22;;;31.40;88.40;;;;;;5022748;28;20476;-57
2022/07/26 12:18:27;;;;;;;0.30;0.30;;;32.00;86.30;;;;;;5040489;28;20430;-57
2022/07/26 12:21:03;;;;;;;0.30;0.30;;;31.90;85.60;;;;;;5028900;28;20481;-58
2022/07/26 12:23:40;;;;;;;0.32;0.32;;;31.30;85.90;;;;;;5020272;28;20462;-57
2022/07/26 12:26:29;;;;;;;0.30;0.30;;;30.70;86.50;;;;;;5028345;28;20475;-58
2022/07/26 12:28:58;;;;;;;0.28;0.28;;;30.50;88.30;;;;;;5032231;28;20424;-58
2022/07/26 12:31:32;;;;;;;0.30;0.30;;;30.30;88.40;;;;;;5028108;28;20437;-58
2022/07/26 12:34:03;;;;;;;0.30;0.30;;;29.90;89.80;;;;;;5012729;28;20442;-57
2022/07/26 12:36:32;;;;;;;0.30;0.30;;;29.70;90.30;;;;;;5028605;28;20872;-57
2022/07/26 12:38:59;;;;;;;0.40;0.40;;;29.30;90.60;;;;;;5026481;28;20430;-57
2022/07/26 12:41:39;;;;;;;0.40;0.40;;;28.80;91.00;;;;;;5029828;28;21225;-58
2022/07/26 12:44:10;;;;;;;0.52;0.50;;;28.50;91.40;;;;;;5031087;28;20458;-57
2022/07/26 12:46:44;;;;;;;0.32;0.32;;;28.50;91.50;;;;;;5029002;28;20504;-55
2022/07/26 12:49:11;;;;;;;0.40;0.40;;;28.20;91.70;;;;;;5027659;28;20430;-55
2022/07/26 12:51:41;;;;;;;0.30;0.30;;;28.10;92.20;;;;;;5042514;28;20515;-57
2022/07/26 12:54:10;;;;;;;0.40;0.40;;;28.20;92.10;;;;;;5027736;28;20445;-57
2022/07/26 12:56:37;;;;;;;0.30;0.30;;;28.80;91.80;;;;;;5026050;28;20430;-57
2022/07/26 12:59:05;;;;;;;0.50;0.33;;;29.50;91.30;;;;;;5021809;28;20441;-58
2022/07/26 13:01:31;;;;;;;0.40;0.30;;;29.70;90.90;;;;;;5024388;28;20436;-57
2022/07/26 13:03:59;;;;;;;0.38;0.38;;;29.60;91.10;;;;;;5017642;28;21207;-63